Donnellson, IL

06:15 AM CDT on septembrie 01, 2014 (GMT -0500)
Litchfield | Change Station
CLOSE
Current Station
Aeroport
Location: Litchfield,
Elevation: 689 ft
Nearby Weather Stations

Elev 689 ft 39.16 °N, 89.67 °W | Updated 40 minutes ago

Clear
Cer senin
71 °F
Feels Like 71 °F
N
9
Vânt variabil Vânt from sud

astăzi
High -- | Low -- °F
--% Chance of Precip.
Ieri
High -- | Low -- °F
Precip. -- inch
6:26 AM 7:28 PM
Semilună în creştere, 40% visible
Presiunea 29.88 inch
Vizibilitatea 4.0 mile
Nori Cer senin
Punctul de rouă 70 °F
Umiditatea 98%
Precipitaţii 0.00 inch
Adâncimea zăpezii Not available.
UV 0 out of 12
Pollen 9.70 out of 12
Calitatea aerului Not available.
Flu Activity Not available.
METAR K3LF 011035Z AUTO 17008KT 4SM BR CLR 22/21 A2988 RMK AO2 T02170214

More Conditions Fewer Conditions

Presiunea 29.88 inch
Vizibilitatea 4.0 mile
Nori Cer senin
Punctul de rouă 70 °F
Umiditatea 98%
Precipitaţii 0.00 inch
Adâncimea zăpezii Not available.
UV 0 out of 12
Pollen 9.70 out of 12
Calitatea aerului Not available.
Flu Activity Not available.
METAR K3LF 011035Z AUTO 17008KT 4SM BR CLR 22/21 A2988 RMK AO2 T02170214

More Conditions Fewer Conditions

10-Day Weather Forecast

Almanac

Astronomie

Sep. 01, 2014 Răsărit Apus
Timpul Actual 6:26 AM CDT 7:28 PM CDT
Crepusculul Civil 5:59 AM CDT 7:55 PM CDT
Crepusculul nautic 5:26 AM CDT 8:28 PM CDT
Răsărit Astronomic 4:52 AM CDT 9:01 PM CDT
Luna 1:09 PM CDT 11:32 PM CDT
Durata zilei lumină 13h 56m
Lungimea zilei
13h 01m
Tomorrow will be 2m 27s shorter.
Semilună în creştere, 40% of the Moon is Illuminated
astăzi
Semilună în creştere
Sep 2
Primul pătrar
Sep 8
Lună plină
Sep 15
Ultimul pătrar
Sep 24
New

Extremele de azi

State Highs State Lows

Community

WunderPhotos

Upload Photos

1,749,188 photos uploaded!

Nearby

Adâncimea zapezii

Station Depth Elevation
No new snow has been reported.

Earthquake Activity

Oraş Distance Mag. Time & Date
No recent earthquake activity has been reported nearby.
Minimum magnitude displayed is 2.5.

Coastal Water Temperatures

Locul Temperatura
No Stations Reporting

Nearby Weather Stations